createdAt,value
2022-11-11T00:25:39.523Z,9.94
2022-11-11T00:30:07.283Z,9.32
2022-11-11T00:33:55.531Z,9.59
2022-11-11T00:36:54.889Z,9.63
2022-11-11T00:40:05.973Z,9.81
2022-11-11T00:43:22.000Z,9.80
2022-11-11T00:46:35.431Z,9.83
2022-11-11T00:50:00.538Z,9.08
2022-11-11T00:54:10.220Z,9.44
2022-11-11T00:56:49.262Z,9.51
2022-11-11T01:00:25.737Z,9.56
2022-11-11T01:03:29.447Z,9.48
2022-11-11T01:07:24.132Z,9.52
2022-11-11T01:10:40.374Z,9.69
2022-11-11T01:13:49.865Z,9.50
2022-11-11T01:18:01.810Z,9.66
2022-11-11T01:21:15.730Z,9.97
2022-11-11T01:28:42.811Z,9.81
2022-11-11T01:31:57.560Z,9.81
2022-11-11T01:35:48.743Z,9.69
2022-11-11T01:39:09.381Z,9.99
2022-11-11T01:42:54.970Z,10.05
2022-11-11T01:46:02.620Z,10.33
2022-11-11T01:49:42.713Z,10.06
2022-11-11T01:53:12.942Z,9.84
2022-11-11T02:00:24.301Z,9.97
2022-11-11T02:04:35.221Z,9.81
2022-11-11T02:08:14.048Z,9.92
2022-11-11T02:11:58.436Z,9.12
2022-11-11T02:18:38.113Z,9.15
2022-11-11T02:22:15.669Z,9.30
2022-11-11T02:29:52.655Z,9.45
2022-11-11T02:32:59.840Z,9.44
2022-11-11T02:36:01.595Z,9.36
2022-11-11T02:47:03.473Z,8.97
2022-11-11T02:49:59.534Z,8.40
2022-11-11T02:53:22.708Z,8.79
2022-11-11T03:03:54.073Z,8.80
2022-11-11T03:08:04.978Z,8.70
2022-11-11T03:11:45.659Z,8.80
2022-11-11T03:15:11.049Z,8.80
2022-11-11T03:18:30.408Z,8.88
2022-11-11T03:25:41.092Z,8.60
2022-11-11T03:28:37.262Z,8.63
2022-11-11T03:31:25.775Z,8.66
2022-11-11T03:34:20.250Z,8.52
2022-11-11T03:37:27.391Z,8.50
2022-11-11T03:40:13.897Z,8.33
2022-11-11T03:43:04.565Z,8.27
2022-11-11T03:45:56.555Z,8.47
2022-11-11T03:48:42.294Z,8.30
2022-11-11T03:51:30.627Z,8.31
2022-11-11T03:54:16.426Z,8.31
2022-11-11T03:57:20.566Z,8.63
2022-11-11T04:00:13.734Z,8.62
2022-11-11T04:03:28.397Z,8.73
2022-11-11T04:06:32.532Z,8.73
2022-11-11T04:09:37.485Z,8.33
2022-11-11T04:12:24.504Z,8.39
2022-11-11T04:15:28.658Z,8.52
2022-11-11T04:18:14.959Z,8.62
2022-11-11T04:21:19.899Z,8.63
2022-11-11T04:24:26.218Z,8.54
2022-11-11T04:27:14.836Z,8.07
2022-11-11T04:30:00.664Z,7.80
2022-11-11T04:32:47.611Z,8.12
2022-11-11T04:35:33.979Z,8.37
2022-11-11T04:38:38.123Z,8.24
2022-11-11T04:41:36.066Z,8.42
2022-11-11T04:44:48.838Z,8.50
2022-11-11T04:47:35.468Z,8.41
2022-11-11T04:50:23.251Z,8.60
2022-11-11T04:53:14.501Z,8.50
2022-11-11T04:56:19.422Z,8.21
2022-11-11T04:59:17.135Z,8.32
2022-11-11T05:02:21.689Z,7.68
2022-11-11T05:05:07.740Z,7.48
2022-11-11T05:08:13.160Z,7.52
2022-11-11T05:10:59.039Z,7.46
2022-11-11T05:14:03.767Z,7.67
2022-11-11T05:17:10.724Z,7.81
2022-11-11T05:20:15.421Z,7.83
2022-11-11T05:23:01.224Z,7.98
2022-11-11T05:25:47.276Z,7.82
2022-11-11T05:28:33.571Z,7.96
2022-11-11T05:31:19.401Z,7.79
2022-11-11T05:34:05.282Z,7.97
2022-11-11T05:36:51.431Z,8.00
2022-11-11T05:39:37.327Z,8.00
2022-11-11T05:42:23.095Z,8.22
2022-11-11T05:45:09.895Z,8.26
2022-11-11T05:47:56.160Z,8.06
2022-11-11T05:50:42.449Z,8.25
2022-11-11T05:53:28.828Z,8.20
2022-11-11T05:56:15.587Z,8.12
2022-11-11T05:59:01.592Z,7.68
2022-11-11T06:01:47.624Z,7.83
2022-11-11T06:04:35.570Z,7.92
2022-11-11T06:07:40.677Z,8.04
2022-11-11T06:10:32.749Z,8.07
2022-11-11T06:13:18.923Z,8.04
2022-11-11T06:16:06.043Z,7.95
2022-11-11T06:18:52.344Z,7.79
2022-11-11T06:21:57.118Z,7.77
2022-11-11T06:25:03.293Z,7.94
2022-11-11T06:27:49.503Z,8.09
2022-11-11T06:30:49.414Z,8.11
2022-11-11T06:33:37.690Z,8.12
2022-11-11T06:36:23.436Z,8.20
2022-11-11T06:39:09.268Z,8.26
2022-11-11T06:41:56.152Z,8.28
2022-11-11T06:44:42.127Z,8.52
2022-11-11T06:47:27.905Z,8.54
2022-11-11T06:50:14.269Z,8.59
2022-11-11T06:53:14.587Z,8.65
2022-11-11T06:56:00.700Z,8.59
2022-11-11T06:58:46.377Z,8.65
2022-11-11T07:01:34.571Z,8.90
2022-11-11T07:04:21.023Z,9.05
2022-11-11T07:07:06.895Z,9.08
2022-11-11T07:09:52.544Z,9.21
2022-11-11T07:12:41.489Z,9.24
2022-11-11T07:15:27.690Z,9.41
2022-11-11T07:18:13.881Z,9.51
2022-11-11T07:21:00.097Z,9.54
2022-11-11T07:23:45.851Z,9.71
2022-11-11T07:26:31.821Z,9.73
2022-11-11T07:29:17.643Z,9.81
2022-11-11T07:32:03.484Z,9.96
2022-11-11T07:34:50.782Z,10.19
2022-11-11T07:37:37.393Z,10.33
2022-11-11T07:40:23.571Z,10.52
2022-11-11T07:43:10.091Z,10.79
2022-11-11T07:45:56.025Z,10.90
2022-11-11T07:48:42.488Z,11.15
2022-11-11T07:51:29.010Z,11.41
2022-11-11T07:54:15.392Z,11.59
2022-11-11T07:57:01.823Z,11.58
2022-11-11T07:59:47.953Z,11.83
2022-11-11T08:02:33.893Z,12.16
2022-11-11T08:05:19.881Z,12.48
2022-11-11T08:08:07.700Z,12.49
2022-11-11T08:10:55.055Z,12.71
2022-11-11T08:13:42.042Z,13.45
2022-11-11T08:16:27.987Z,14.18
2022-11-11T08:19:14.275Z,16.11
2022-11-11T08:22:00.781Z,17.36
2022-11-11T08:25:04.312Z,17.83
2022-11-11T08:28:00.200Z,18.89
2022-11-11T08:30:46.109Z,20.13
2022-11-11T08:33:44.348Z,20.00
2022-11-11T08:36:30.656Z,20.35
2022-11-11T08:39:17.015Z,20.49
2022-11-11T08:42:03.106Z,19.80
2022-11-11T08:44:49.423Z,19.79
2022-11-11T08:47:36.621Z,19.84
2022-11-11T08:50:22.524Z,21.08
2022-11-11T08:53:08.940Z,20.94
2022-11-11T08:55:55.168Z,21.38
2022-11-11T08:58:41.355Z,21.92
2022-11-11T09:01:27.449Z,22.18
2022-11-11T09:07:19.488Z,21.63
2022-11-11T09:10:05.537Z,21.05
2022-11-11T09:12:56.715Z,20.46
2022-11-11T09:15:59.832Z,20.80
2022-11-11T09:18:46.701Z,21.39
2022-11-11T09:21:32.652Z,21.67
2022-11-11T09:24:18.355Z,20.88
2022-11-11T09:27:04.216Z,20.30
2022-11-11T09:29:49.976Z,20.61
2022-11-11T09:32:36.826Z,21.61
2022-11-11T09:35:22.741Z,21.22
2022-11-11T09:38:09.201Z,22.03
2022-11-11T09:41:04.848Z,21.35
2022-11-11T09:43:59.857Z,21.39
2022-11-11T09:47:06.109Z,21.71
2022-11-11T09:50:04.052Z,20.50
2022-11-11T09:52:55.689Z,20.08
2022-11-11T09:55:56.988Z,21.32
2022-11-11T09:58:52.678Z,22.11
2022-11-11T10:01:43.147Z,20.85
2022-11-11T10:04:48.145Z,19.73
2022-11-11T10:07:46.094Z,19.44
2022-11-11T10:10:51.498Z,19.40
2022-11-11T10:13:39.028Z,19.53
2022-11-11T10:17:02.163Z,18.37
2022-11-11T10:20:03.173Z,18.96
2022-11-11T10:23:03.388Z,19.17
2022-11-11T10:25:55.255Z,19.17
2022-11-11T10:28:44.650Z,19.50
2022-11-11T10:31:30.669Z,18.90
2022-11-11T10:34:19.865Z,18.77
2022-11-11T10:37:17.192Z,18.51
2022-11-11T10:40:18.558Z,18.38
2022-11-11T10:43:04.605Z,17.65
2022-11-11T10:46:03.404Z,17.95
2022-11-11T10:48:59.209Z,17.05
2022-11-11T10:51:55.615Z,17.65
2022-11-11T10:54:52.126Z,17.42
2022-11-11T10:58:04.454Z,16.94
2022-11-11T11:00:53.890Z,16.97
2022-11-11T11:03:45.738Z,16.87
2022-11-11T11:06:36.132Z,17.26
2022-11-11T11:09:30.697Z,16.82
2022-11-11T11:12:28.553Z,17.98
2022-11-11T11:15:40.064Z,18.19
2022-11-11T11:18:27.250Z,17.98
2022-11-11T11:21:13.557Z,17.90
2022-11-11T11:23:59.533Z,18.35
2022-11-11T11:26:47.923Z,17.77
2022-11-11T11:29:42.977Z,18.15
2022-11-11T11:32:31.311Z,18.10
2022-11-11T11:35:33.490Z,18.25
2022-11-11T11:38:19.658Z,17.84
2022-11-11T11:41:05.480Z,18.60
2022-11-11T11:43:51.352Z,18.84
2022-11-11T11:46:42.936Z,18.70
2022-11-11T11:49:47.844Z,19.01
2022-11-11T11:52:45.787Z,19.35
2022-11-11T11:55:42.375Z,18.48
2022-11-11T11:58:53.388Z,18.86
2022-11-11T12:01:52.433Z,18.65
2022-11-11T12:04:49.622Z,18.93
2022-11-11T12:07:56.690Z,18.63
2022-11-11T12:11:03.608Z,18.70
2022-11-11T12:14:07.172Z,18.79
2022-11-11T12:17:19.194Z,18.89
2022-11-11T12:20:25.402Z,18.81
2022-11-11T12:23:29.928Z,18.67
2022-11-11T12:26:25.876Z,18.93
2022-11-11T12:29:17.962Z,19.15
2022-11-11T12:32:18.732Z,18.94
2022-11-11T12:35:10.340Z,18.59
2022-11-11T12:38:27.033Z,18.77
2022-11-11T12:41:51.796Z,18.17
2022-11-11T12:44:46.676Z,18.54
2022-11-11T12:47:47.244Z,18.86
2022-11-11T12:50:43.815Z,19.17
2022-11-11T12:53:43.418Z,18.97
2022-11-11T12:56:42.109Z,19.04
2022-11-11T12:59:37.990Z,19.21
2022-11-11T13:02:49.357Z,18.39
2022-11-11T13:05:49.193Z,18.75
2022-11-11T13:08:41.130Z,18.70
2022-11-11T13:11:39.907Z,18.72
2022-11-11T13:14:47.622Z,18.85
2022-11-11T13:17:33.804Z,18.88
2022-11-11T13:21:07.238Z,18.86
2022-11-11T13:23:53.830Z,18.88
2022-11-11T13:26:48.057Z,18.84
2022-11-11T13:29:40.195Z,18.68
2022-11-11T13:32:34.466Z,18.53
2022-11-11T13:35:28.932Z,18.31
2022-11-11T13:38:28.720Z,18.58
2022-11-11T13:41:23.142Z,18.21
2022-11-11T13:44:10.224Z,18.36
2022-11-11T13:47:07.431Z,18.06
2022-11-11T13:50:21.383Z,18.15
2022-11-11T13:53:25.538Z,18.29
2022-11-11T13:56:13.044Z,18.42
2022-11-11T13:59:00.206Z,18.35
2022-11-11T14:01:46.145Z,18.29
2022-11-11T14:05:09.025Z,18.14
2022-11-11T14:07:57.599Z,18.26
2022-11-11T14:10:56.347Z,18.20
2022-11-11T14:13:42.773Z,18.19
2022-11-11T14:16:34.866Z,18.34
2022-11-11T14:19:20.954Z,18.25
2022-11-11T14:22:33.124Z,18.17
2022-11-11T14:25:21.237Z,17.90
2022-11-11T14:28:50.983Z,17.91
2022-11-11T14:31:56.325Z,17.89
2022-11-11T14:34:52.331Z,17.81
2022-11-11T14:37:46.452Z,17.79
2022-11-11T14:40:36.226Z,17.64
2022-11-11T14:43:38.277Z,17.73
2022-11-11T14:46:24.520Z,17.58
2022-11-11T14:49:10.343Z,17.52
2022-11-11T14:51:59.448Z,17.36
2022-11-11T14:55:02.867Z,17.23
2022-11-11T14:57:54.555Z,17.21
2022-11-11T15:00:56.916Z,17.00
2022-11-11T15:03:45.057Z,16.90
2022-11-11T15:06:42.519Z,16.81
2022-11-11T15:09:49.703Z,16.71
2022-11-11T15:12:45.441Z,16.57
2022-11-11T15:15:41.617Z,16.43
2022-11-11T15:18:42.294Z,16.29
2022-11-11T15:21:42.837Z,16.13
2022-11-11T15:25:01.536Z,16.01
2022-11-11T15:28:04.243Z,15.99
2022-11-11T15:31:01.596Z,15.82
2022-11-11T15:34:02.465Z,15.67
2022-11-11T15:37:10.907Z,15.59
2022-11-11T15:39:58.380Z,15.50
2022-11-11T15:42:48.243Z,15.41
2022-11-11T15:45:36.097Z,15.26
2022-11-11T15:48:33.782Z,15.09
2022-11-11T15:51:22.230Z,15.10
2022-11-11T15:54:20.034Z,15.02
2022-11-11T15:57:24.580Z,15.02
2022-11-11T16:00:32.474Z,14.86
2022-11-11T16:03:27.121Z,14.75
2022-11-11T16:06:15.855Z,14.73
2022-11-11T16:09:03.405Z,14.82
2022-11-11T16:11:52.332Z,14.77
2022-11-11T16:14:44.778Z,14.65
2022-11-11T16:17:41.766Z,14.61
2022-11-11T16:20:34.567Z,14.43
2022-11-11T16:23:21.905Z,14.44
2022-11-11T16:26:09.055Z,14.33
2022-11-11T16:28:58.148Z,14.19
2022-11-11T16:31:46.062Z,14.13
2022-11-11T16:34:34.017Z,14.25
2022-11-11T16:37:21.766Z,14.06
2022-11-11T16:40:28.960Z,13.90
2022-11-11T16:43:19.136Z,14.07
2022-11-11T16:46:15.612Z,14.09
2022-11-11T16:49:24.814Z,13.99
2022-11-11T16:52:21.359Z,13.97
2022-11-11T16:55:11.492Z,13.84
2022-11-11T16:58:16.741Z,13.58
2022-11-11T17:01:04.315Z,13.46
2022-11-11T17:03:55.982Z,13.49
2022-11-11T17:07:00.709Z,13.43
2022-11-11T17:09:46.946Z,13.45
2022-11-11T17:12:33.389Z,13.40
2022-11-11T17:15:21.808Z,13.22
2022-11-11T17:18:09.284Z,13.15
2022-11-11T17:20:56.019Z,13.32
2022-11-11T17:23:41.913Z,13.14
2022-11-11T17:26:28.289Z,12.78
2022-11-11T17:29:15.327Z,13.02
2022-11-11T17:32:01.314Z,12.89
2022-11-11T17:34:47.406Z,12.64
2022-11-11T17:37:35.744Z,12.37
2022-11-11T17:40:21.801Z,12.69
2022-11-11T17:43:07.649Z,12.84
2022-11-11T17:45:53.537Z,13.12
2022-11-11T17:48:40.210Z,13.00
2022-11-11T17:51:26.488Z,12.95
2022-11-11T17:54:12.510Z,12.83
2022-11-11T17:56:59.531Z,12.84
2022-11-11T17:59:45.664Z,12.51
2022-11-11T18:02:32.048Z,12.27
2022-11-11T18:05:18.539Z,12.13
2022-11-11T18:08:06.021Z,12.18
2022-11-11T18:10:59.077Z,12.26
2022-11-11T18:13:44.794Z,12.40
2022-11-11T18:16:30.930Z,12.43
2022-11-11T18:19:17.657Z,12.34
2022-11-11T18:22:03.802Z,12.35
2022-11-11T18:24:49.612Z,12.27
2022-11-11T18:27:35.900Z,12.02
2022-11-11T18:30:22.769Z,12.05
2022-11-11T18:33:09.450Z,12.16
2022-11-11T18:35:55.928Z,12.14
2022-11-11T18:38:43.750Z,12.09
2022-11-11T18:41:30.308Z,11.99
2022-11-11T18:44:16.378Z,12.02
2022-11-11T18:47:02.224Z,11.55
2022-11-11T18:49:47.915Z,11.42
2022-11-11T18:52:33.650Z,11.66
2022-11-11T18:55:19.386Z,11.72
2022-11-11T18:58:05.060Z,11.62
2022-11-11T19:00:50.873Z,11.41
2022-11-11T19:03:37.543Z,11.47
2022-11-11T19:06:25.427Z,11.61
2022-11-11T19:09:13.064Z,11.05
2022-11-11T19:11:59.282Z,11.15
2022-11-11T19:14:45.811Z,10.91
2022-11-11T19:17:31.644Z,11.03
2022-11-11T19:20:17.682Z,11.15
2022-11-11T19:23:03.493Z,11.02
2022-11-11T19:25:49.585Z,11.06
2022-11-11T19:28:37.077Z,10.97
2022-11-11T19:31:25.587Z,10.98
2022-11-11T19:34:11.935Z,11.13
2022-11-11T19:36:58.469Z,11.10
2022-11-11T19:39:44.492Z,11.43
2022-11-11T19:42:30.478Z,11.43
2022-11-11T19:45:16.961Z,11.48
2022-11-11T19:48:02.759Z,11.31
2022-11-11T19:50:48.522Z,11.25
2022-11-11T19:53:34.977Z,11.03
2022-11-11T19:56:21.254Z,11.02
2022-11-11T19:59:07.238Z,10.88
2022-11-11T20:01:52.989Z,11.03
2022-11-11T20:04:38.853Z,11.10
2022-11-11T20:07:24.594Z,10.99
2022-11-11T20:10:10.627Z,10.86
2022-11-11T20:12:56.437Z,10.87
2022-11-11T20:15:42.065Z,10.75
2022-11-11T20:18:29.347Z,10.76
2022-11-11T20:21:15.473Z,10.69
2022-11-11T20:24:01.210Z,10.67
2022-11-11T20:26:51.877Z,10.63
2022-11-11T20:29:38.555Z,10.62
2022-11-11T20:32:24.278Z,10.62
2022-11-11T20:35:10.169Z,10.60
2022-11-11T20:37:56.308Z,10.67
2022-11-11T20:40:42.029Z,10.65
2022-11-11T20:43:30.264Z,10.66
2022-11-11T20:46:19.000Z,10.80
2022-11-11T20:49:05.131Z,10.90
2022-11-11T20:51:51.425Z,10.96
2022-11-11T20:54:38.420Z,10.78
2022-11-11T20:57:24.537Z,10.74
2022-11-11T21:00:11.591Z,10.41
2022-11-11T21:02:57.686Z,10.51
2022-11-11T21:05:43.469Z,10.44
2022-11-11T21:08:32.773Z,10.33
2022-11-11T21:11:21.777Z,10.18
2022-11-11T21:14:08.764Z,10.04
2022-11-11T21:16:54.760Z,10.03
2022-11-11T21:19:40.466Z,10.01
2022-11-11T21:22:26.406Z,10.06
2022-11-11T21:25:12.429Z,10.16
2022-11-11T21:28:00.085Z,10.13
2022-11-11T21:30:46.355Z,10.18
2022-11-11T21:33:32.106Z,10.20
2022-11-11T21:36:19.470Z,10.05
2022-11-11T21:39:07.430Z,10.15
2022-11-11T21:41:53.308Z,10.26
2022-11-11T21:44:39.134Z,10.32
2022-11-11T21:47:24.948Z,10.32
2022-11-11T21:50:10.836Z,10.16
2022-11-11T21:52:57.010Z,9.65
2022-11-11T21:55:42.767Z,9.62
2022-11-11T21:58:29.456Z,9.79
2022-11-11T22:01:20.484Z,9.93
2022-11-11T22:04:11.872Z,9.96
2022-11-11T22:06:58.147Z,9.72
2022-11-11T22:09:44.331Z,9.85
2022-11-11T22:12:35.981Z,9.84
2022-11-11T22:15:22.286Z,9.81
2022-11-11T22:18:08.613Z,9.71
2022-11-11T22:20:54.824Z,9.72
2022-11-11T22:23:40.596Z,9.67
2022-11-11T22:26:30.578Z,9.18
2022-11-11T22:29:16.692Z,9.22
2022-11-11T22:32:02.497Z,8.94
2022-11-11T22:34:48.477Z,8.95
2022-11-11T22:37:34.240Z,9.39
2022-11-11T22:40:20.138Z,9.35
2022-11-11T22:43:06.169Z,9.36
2022-11-11T22:45:57.194Z,9.44
2022-11-11T22:48:49.725Z,9.57
2022-11-11T22:51:35.487Z,9.48
2022-11-11T22:54:21.777Z,9.37
2022-11-11T22:57:09.171Z,8.86
2022-11-11T22:59:55.252Z,9.29
2022-11-11T23:02:41.052Z,9.34
2022-11-11T23:05:27.174Z,9.38
2022-11-11T23:08:13.544Z,8.83
2022-11-11T23:11:28.767Z,8.81
2022-11-11T23:14:16.007Z,8.80
2022-11-11T23:17:02.151Z,8.70
2022-11-11T23:19:47.943Z,8.72
2022-11-11T23:22:33.907Z,9.00
2022-11-11T23:25:27.356Z,9.00
2022-11-11T23:28:13.231Z,8.89
2022-11-11T23:31:09.291Z,9.13
2022-11-11T23:33:58.412Z,9.05
2022-11-11T23:36:44.484Z,9.01
2022-11-11T23:39:30.317Z,8.85
2022-11-11T23:42:16.171Z,8.90
2022-11-11T23:45:02.175Z,8.95
2022-11-11T23:47:48.366Z,8.91
2022-11-11T23:50:34.382Z,8.77
2022-11-11T23:53:20.524Z,8.79
2022-11-11T23:56:06.975Z,8.91
2022-11-11T23:58:53.094Z,8.95
